Aviation Digital Data Service (ADDS)

Output produced by METARs form (1831 UTC 30 May 2015)
found at http://aviationweather.gov/adds/metars/
 
KDFW 301720Z 3018/3124 33012KT P6SM VCSH BKN015 BKN080 
     FM302000 36010KT P6SM VCTS BKN030CB 
     FM310000 01008KT P6SM BKN150